createdAt,value
2019-05-26T00:00:03.968Z,100412.95
2019-05-26T00:03:11.601Z,100411.94
2019-05-26T00:06:18.211Z,100399.42
2019-05-26T00:09:24.687Z,100393.92
2019-05-26T00:12:31.400Z,100391.97
2019-05-26T00:15:38.111Z,100383.34
2019-05-26T00:18:45.272Z,100379.08
2019-05-26T00:21:51.735Z,100374.08
2019-05-26T00:24:58.075Z,100363.02
2019-05-26T00:28:04.522Z,100369.08
2019-05-26T00:31:11.781Z,100357.92
2019-05-26T00:34:18.300Z,100356.44
2019-05-26T00:37:25.639Z,100346.28
2019-05-26T00:40:32.446Z,100353.15
2019-05-26T00:43:38.948Z,100344.64
2019-05-26T00:46:45.885Z,100344.64
2019-05-26T00:49:53.367Z,100338.25
2019-05-26T00:52:59.783Z,100335.45
2019-05-26T00:56:06.164Z,100322.50
2019-05-26T00:59:12.874Z,100322.37
2019-05-26T01:02:19.489Z,100317.15
2019-05-26T01:05:26.128Z,100316.64
2019-05-26T01:08:33.008Z,100315.03
2019-05-26T01:11:39.931Z,100306.05
2019-05-26T01:14:46.736Z,100298.05
2019-05-26T01:17:53.435Z,100292.98
2019-05-26T01:20:59.957Z,100288.88
2019-05-26T01:24:06.545Z,100284.16
2019-05-26T01:27:13.171Z,100285.97
2019-05-26T01:30:22.225Z,100283.42
2019-05-26T01:33:28.853Z,100284.20
2019-05-26T01:36:35.683Z,100275.22
2019-05-26T01:39:42.114Z,100271.13
2019-05-26T01:42:48.428Z,100270.14
2019-05-26T01:45:55.371Z,100251.88
2019-05-26T01:49:02.367Z,100250.31
2019-05-26T01:52:08.724Z,100182.59
2019-05-26T01:55:15.508Z,100252.12
2019-05-26T01:58:22.265Z,100234.92
2019-05-26T02:01:29.004Z,100238.45
2019-05-26T02:04:35.410Z,100226.73
2019-05-26T02:07:41.806Z,100219.21
2019-05-26T02:10:48.343Z,100223.86
2019-05-26T02:13:55.190Z,100219.60
2019-05-26T02:17:02.004Z,100211.22
2019-05-26T02:20:09.193Z,100214.37
2019-05-26T02:23:15.690Z,100203.37
2019-05-26T02:26:22.170Z,100203.24
2019-05-26T02:29:28.867Z,100204.02
2019-05-26T02:32:35.909Z,100207.47
2019-05-26T02:35:43.285Z,100199.64
2019-05-26T02:39:01.903Z,100187.85
2019-05-26T02:41:58.056Z,100179.98
2019-05-26T02:45:05.509Z,100180.33
2019-05-26T02:48:12.073Z,100180.27
2019-05-26T02:51:19.378Z,100167.45
2019-05-26T02:54:26.246Z,100170.13
2019-05-26T02:57:32.795Z,100172.16
2019-05-26T03:00:43.962Z,100168.17
2019-05-26T03:03:52.185Z,100161.86
2019-05-26T03:06:59.552Z,100143.52
2019-05-26T03:10:05.949Z,100148.71
2019-05-26T03:13:16.878Z,100143.58
2019-05-26T03:16:23.204Z,100136.70
2019-05-26T03:19:30.465Z,100138.30
2019-05-26T03:22:40.136Z,100140.39
2019-05-26T03:25:46.526Z,100128.16
2019-05-26T03:28:53.422Z,100125.44
2019-05-26T03:32:00.185Z,100117.54
2019-05-26T03:35:08.334Z,100113.03
2019-05-26T03:38:15.255Z,100107.53
2019-05-26T03:41:22.136Z,100101.70
2019-05-26T03:44:28.849Z,100091.90
2019-05-26T03:47:35.903Z,100087.87
2019-05-26T03:50:43.873Z,100082.11
2019-05-26T03:53:50.661Z,100077.13
2019-05-26T03:56:57.130Z,100078.68
2019-05-26T04:00:03.953Z,100078.86
2019-05-26T04:03:10.571Z,100077.08
2019-05-26T04:06:17.280Z,100061.17
2019-05-26T04:09:23.921Z,100058.67
2019-05-26T04:12:30.506Z,100057.90
2019-05-26T04:15:37.045Z,100048.06
2019-05-26T04:18:43.457Z,100036.34
2019-05-26T04:21:49.885Z,100031.82
2019-05-26T04:24:56.288Z,100035.91
2019-05-26T04:28:02.715Z,100025.90
2019-05-26T04:31:09.159Z,100021.69
2019-05-26T04:34:15.727Z,100023.87
2019-05-26T04:37:22.061Z,100017.23
2019-05-26T04:40:28.808Z,100017.88
2019-05-26T04:43:35.200Z,100012.25
2019-05-26T04:46:41.701Z,99986.63
2019-05-26T04:49:48.154Z,99986.63
2019-05-26T04:53:05.963Z,99994.09
2019-05-26T04:56:03.164Z,99986.28
2019-05-26T04:59:09.682Z,99983.66
2019-05-26T05:02:16.111Z,99963.09
2019-05-26T05:05:22.501Z,99975.81
2019-05-26T05:08:29.213Z,99968.73
2019-05-26T05:11:35.866Z,99960.07
2019-05-26T05:14:42.536Z,99945.14
2019-05-26T05:17:48.999Z,99949.88
2019-05-26T05:20:55.391Z,99946.16
2019-05-26T05:24:01.967Z,99942.52
2019-05-26T05:27:09.284Z,99930.95
2019-05-26T05:30:15.770Z,99941.82
2019-05-26T05:33:22.038Z,99930.44
2019-05-26T05:36:28.605Z,99919.66
2019-05-26T05:39:35.006Z,99910.27
2019-05-26T05:42:42.934Z,99911.36
2019-05-26T05:45:49.381Z,99900.20
2019-05-26T05:48:55.740Z,99901.82
2019-05-26T05:52:02.130Z,99888.42
2019-05-26T05:55:08.721Z,99889.34
2019-05-26T05:58:15.395Z,99883.72
2019-05-26T06:01:21.795Z,99883.37
2019-05-26T06:04:28.070Z,99872.20
2019-05-26T06:07:34.535Z,99876.72
2019-05-26T06:10:41.096Z,99863.28
2019-05-26T06:13:47.577Z,99859.41
2019-05-26T06:16:53.841Z,99854.80
2019-05-26T06:20:00.484Z,99842.13
2019-05-26T06:23:06.934Z,99847.87
2019-05-26T06:26:13.282Z,99841.05
2019-05-26T06:29:19.713Z,99834.20
2019-05-26T06:32:26.166Z,99831.83
2019-05-26T06:35:33.147Z,99830.76
2019-05-26T06:38:39.564Z,99824.84
2019-05-26T06:41:46.026Z,99810.98
2019-05-26T06:44:54.091Z,99814.28
2019-05-26T06:48:00.832Z,99813.61
2019-05-26T06:51:07.246Z,99799.34
2019-05-26T06:54:13.665Z,99794.38
2019-05-26T06:57:20.208Z,99782.36
2019-05-26T07:00:27.025Z,99783.25
2019-05-26T07:03:33.378Z,99777.91
2019-05-26T07:06:39.782Z,99766.92
2019-05-26T07:09:48.570Z,99761.03
2019-05-26T07:12:55.007Z,99754.97
2019-05-26T07:16:01.434Z,99748.11
2019-05-26T07:19:07.845Z,99744.31
2019-05-26T07:22:14.318Z,99735.81
2019-05-26T07:25:20.697Z,99729.63
2019-05-26T07:28:27.059Z,99730.81
2019-05-26T07:31:33.499Z,99716.98
2019-05-26T07:34:40.199Z,99722.64
2019-05-26T07:37:46.557Z,99713.47
2019-05-26T07:40:52.873Z,99708.20
2019-05-26T07:43:59.238Z,99709.77
2019-05-26T07:47:05.575Z,99703.45
2019-05-26T07:50:11.980Z,99698.48
2019-05-26T07:53:18.413Z,99684.06
2019-05-26T07:56:24.988Z,99687.86
2019-05-26T07:59:31.466Z,99687.58
2019-05-26T08:02:39.297Z,99689.80
2019-05-26T08:05:45.716Z,99687.56
2019-05-26T08:08:52.067Z,99680.94
2019-05-26T08:11:58.416Z,99672.47
2019-05-26T08:15:05.751Z,99669.55
2019-05-26T08:18:12.113Z,99669.86
2019-05-26T08:21:18.379Z,99665.77
2019-05-26T08:24:24.815Z,99653.10
2019-05-26T08:27:31.203Z,99647.44
2019-05-26T08:30:37.475Z,99650.97
2019-05-26T08:33:43.832Z,99639.28
2019-05-26T08:36:50.275Z,99642.68
2019-05-26T08:39:59.220Z,99642.68
2019-05-26T08:43:05.686Z,99655.16
2019-05-26T08:46:12.056Z,99647.77
2019-05-26T08:49:18.575Z,99636.17
2019-05-26T08:52:25.086Z,99636.17
2019-05-26T08:55:31.538Z,99638.11
2019-05-26T08:58:37.908Z,99634.38
2019-05-26T09:01:45.704Z,99643.77
2019-05-26T09:04:52.447Z,99633.70
2019-05-26T09:07:58.943Z,99628.16
2019-05-26T09:11:05.313Z,99628.86
2019-05-26T09:14:11.777Z,99621.14
2019-05-26T09:17:18.630Z,99618.31
2019-05-26T09:20:25.089Z,99615.86
2019-05-26T09:23:31.327Z,99619.92
2019-05-26T09:26:37.779Z,99608.25
2019-05-26T09:29:44.264Z,99596.03
2019-05-26T09:32:51.597Z,99596.03
2019-05-26T09:35:58.074Z,99601.31
2019-05-26T09:39:06.420Z,99583.29
2019-05-26T09:42:12.917Z,99597.61
2019-05-26T09:45:19.275Z,99589.05
2019-05-26T09:48:25.675Z,99589.76
2019-05-26T09:51:33.300Z,99583.77
2019-05-26T09:54:39.663Z,99589.00
2019-05-26T09:57:46.060Z,99586.49
2019-05-26T10:00:52.391Z,99565.84
2019-05-26T10:03:58.805Z,99578.16
2019-05-26T10:07:05.525Z,99569.19
2019-05-26T10:10:12.245Z,99562.89
2019-05-26T10:13:30.941Z,99562.32
2019-05-26T10:16:26.638Z,99557.71
2019-05-26T10:19:33.574Z,99553.05
2019-05-26T10:22:40.002Z,99558.63
2019-05-26T10:25:46.267Z,99546.47
2019-05-26T10:28:52.579Z,99556.28
2019-05-26T10:31:59.130Z,99541.52
2019-05-26T10:35:06.088Z,99548.34
2019-05-26T10:38:12.434Z,99535.75
2019-05-26T10:41:18.802Z,99534.48
2019-05-26T10:44:25.144Z,99538.04
2019-05-26T10:47:31.621Z,99534.59
2019-05-26T10:50:39.028Z,99536.41
2019-05-26T10:53:45.437Z,99530.63
2019-05-26T10:56:52.059Z,99531.76
2019-05-26T10:59:58.435Z,99533.58
2019-05-26T11:03:04.852Z,99523.46
2019-05-26T11:06:12.535Z,99523.80
2019-05-26T11:09:19.300Z,99528.83
2019-05-26T11:12:25.799Z,99531.27
2019-05-26T11:15:32.136Z,99514.48
2019-05-26T11:18:38.504Z,99504.83
2019-05-26T11:21:45.176Z,99511.48
2019-05-26T11:24:52.050Z,99509.13
2019-05-26T11:27:58.421Z,99503.56
2019-05-26T11:31:04.808Z,99499.57
2019-05-26T11:34:11.378Z,99499.13
2019-05-26T11:37:17.949Z,99497.17
2019-05-26T11:40:24.301Z,99507.06
2019-05-26T11:43:30.621Z,99515.30
2019-05-26T11:46:37.080Z,99500.26
2019-05-26T11:49:43.423Z,99518.73
2019-05-26T11:52:50.980Z,99501.66
2019-05-26T11:55:57.371Z,99496.45
2019-05-26T11:59:03.847Z,99499.31
2019-05-26T12:02:14.065Z,99500.70
2019-05-26T12:05:22.529Z,99538.78
2019-05-26T12:08:28.991Z,99529.86
2019-05-26T12:11:35.861Z,99518.30
2019-05-26T12:14:42.140Z,99546.66
2019-05-26T12:17:48.583Z,99527.91
2019-05-26T12:20:55.146Z,99543.65
2019-05-26T12:24:04.582Z,99553.52
2019-05-26T12:27:11.024Z,99553.61
2019-05-26T12:30:17.587Z,99557.77
2019-05-26T12:33:23.939Z,99539.02
2019-05-26T12:36:30.296Z,99534.59
2019-05-26T12:39:36.825Z,99550.30
2019-05-26T12:42:43.160Z,99557.80
2019-05-26T12:45:49.614Z,99577.48
2019-05-26T12:48:55.947Z,99586.92
2019-05-26T12:52:02.224Z,99581.08
2019-05-26T12:55:10.092Z,99588.17
2019-05-26T12:58:16.622Z,99578.01
2019-05-26T13:01:23.073Z,99584.95
2019-05-26T13:04:29.567Z,99577.99
2019-05-26T13:07:35.890Z,99564.52
2019-05-26T13:10:42.206Z,99564.16
2019-05-26T13:13:48.989Z,99561.34
2019-05-26T13:16:56.483Z,99565.68
2019-05-26T13:20:02.895Z,99561.01
2019-05-26T13:23:09.353Z,99554.95
2019-05-26T13:26:15.985Z,99545.20
2019-05-26T13:29:25.642Z,99549.88
2019-05-26T13:32:30.624Z,99535.95
2019-05-26T13:35:37.083Z,99531.55
2019-05-26T13:38:43.603Z,99540.33
2019-05-26T13:41:50.079Z,99524.88
2019-05-26T13:44:56.421Z,99540.94
2019-05-26T13:48:02.823Z,99532.61
2019-05-26T13:51:09.224Z,99541.09
2019-05-26T13:54:15.654Z,99540.81
2019-05-26T13:57:22.102Z,99541.36
2019-05-26T14:00:28.499Z,99542.52
2019-05-26T14:03:34.897Z,99549.03
2019-05-26T14:06:41.591Z,99569.38
2019-05-26T14:09:47.968Z,99565.51
2019-05-26T14:12:54.330Z,99565.51
2019-05-26T14:16:01.296Z,99567.41
2019-05-26T14:19:07.744Z,99580.77
2019-05-26T14:22:14.082Z,99588.09
2019-05-26T14:25:21.157Z,99595.37
2019-05-26T14:28:27.747Z,99610.60
2019-05-26T14:31:35.794Z,99625.37
2019-05-26T14:34:43.563Z,99630.89
2019-05-26T14:37:49.974Z,99635.09
2019-05-26T14:40:59.181Z,99627.19
2019-05-26T14:44:05.901Z,99630.48
2019-05-26T14:47:12.303Z,99627.41
2019-05-26T14:50:19.796Z,99627.22
2019-05-26T14:53:26.664Z,99632.30
2019-05-26T14:56:33.116Z,99631.74
2019-05-26T14:59:39.391Z,99629.73
2019-05-26T15:02:45.971Z,99631.78
2019-05-26T15:06:05.400Z,99631.81
2019-05-26T15:09:01.374Z,99635.44
2019-05-26T15:12:08.816Z,99638.06
2019-05-26T15:15:16.141Z,99632.56
2019-05-26T15:18:23.064Z,99635.31
2019-05-26T15:21:29.425Z,99633.37
2019-05-26T15:24:35.862Z,99629.28
2019-05-26T15:27:42.255Z,99629.28
2019-05-26T15:30:48.792Z,99655.67
2019-05-26T15:33:55.272Z,99663.13
2019-05-26T15:37:01.614Z,99680.44
2019-05-26T15:40:08.406Z,99671.77
2019-05-26T15:43:14.812Z,99684.03
2019-05-26T15:46:25.144Z,99680.02
2019-05-26T15:49:29.195Z,99676.52
2019-05-26T15:52:35.671Z,99685.00
2019-05-26T15:55:42.494Z,99691.48
2019-05-26T15:58:48.785Z,99695.56
2019-05-26T16:01:55.388Z,99698.22
2019-05-26T16:05:01.790Z,99716.05
2019-05-26T16:08:09.316Z,99723.54
2019-05-26T16:11:15.924Z,99719.89
2019-05-26T16:14:22.272Z,99731.51
2019-05-26T16:17:28.703Z,99740.16
2019-05-26T16:20:35.248Z,99745.45
2019-05-26T16:23:41.614Z,99748.63
2019-05-26T16:26:49.193Z,99747.37
2019-05-26T16:29:55.641Z,99761.39
2019-05-26T16:33:02.288Z,99758.79
2019-05-26T16:36:08.686Z,99773.96
2019-05-26T16:39:15.103Z,99795.53
2019-05-26T16:42:21.521Z,99787.41
2019-05-26T16:45:27.940Z,99785.38
2019-05-26T16:48:34.371Z,99800.01
2019-05-26T16:51:40.728Z,99815.69
2019-05-26T16:54:47.155Z,99806.33
2019-05-26T16:57:53.566Z,99826.47
2019-05-26T17:01:00.937Z,99827.71
2019-05-26T17:04:07.367Z,99834.05
2019-05-26T17:07:14.058Z,99833.59
2019-05-26T17:10:20.408Z,99853.45
2019-05-26T17:13:26.846Z,99860.77
2019-05-26T17:16:33.191Z,99860.77
2019-05-26T17:19:40.026Z,99873.35
2019-05-26T17:22:47.495Z,99869.56
2019-05-26T17:25:54.136Z,99877.17
2019-05-26T17:29:00.457Z,99886.63
2019-05-26T17:32:07.235Z,99895.06
2019-05-26T17:35:14.050Z,99895.77
2019-05-26T17:38:20.568Z,99912.80
2019-05-26T17:41:26.987Z,99914.80
2019-05-26T17:44:33.472Z,99920.09
2019-05-26T17:47:39.977Z,99927.28
2019-05-26T17:50:46.380Z,99929.95
2019-05-26T17:53:52.762Z,99931.59
2019-05-26T17:57:00.158Z,99931.90
2019-05-26T18:00:07.400Z,99936.48
2019-05-26T18:03:14.632Z,99945.95
2019-05-26T18:06:21.124Z,99949.77
2019-05-26T18:09:41.479Z,99951.54
2019-05-26T18:12:35.719Z,99953.55
2019-05-26T18:15:42.214Z,99967.41
2019-05-26T18:18:50.728Z,99970.24
2019-05-26T18:21:57.130Z,99963.09
2019-05-26T18:25:04.243Z,99970.86
2019-05-26T18:28:11.862Z,99970.37
2019-05-26T18:31:18.158Z,99979.97
2019-05-26T18:34:24.561Z,99987.27
2019-05-26T18:37:31.604Z,99987.09
2019-05-26T18:40:37.923Z,99989.25
2019-05-26T18:43:44.248Z,99999.66
2019-05-26T18:46:53.479Z,100005.45
2019-05-26T18:49:58.975Z,100015.00
2019-05-26T18:53:05.368Z,100012.72
2019-05-26T18:56:11.750Z,100032.23
2019-05-26T18:59:18.291Z,100032.58
2019-05-26T19:02:24.719Z,100032.58
2019-05-26T19:05:35.850Z,100036.14
2019-05-26T19:08:39.264Z,100034.17
2019-05-26T19:11:45.696Z,100043.00
2019-05-26T19:14:52.164Z,100049.88
2019-05-26T19:17:58.748Z,100063.02
2019-05-26T19:21:06.635Z,100067.59
2019-05-26T19:24:13.187Z,100087.02
2019-05-26T19:27:20.168Z,100085.56
2019-05-26T19:30:26.927Z,100085.79
2019-05-26T19:33:33.600Z,100097.19
2019-05-26T19:36:40.332Z,100111.86
2019-05-26T19:39:50.441Z,100111.58
2019-05-26T19:42:56.962Z,100114.41
2019-05-26T19:46:03.400Z,100101.42
2019-05-26T19:49:10.105Z,100119.58
2019-05-26T19:52:16.568Z,100122.34
2019-05-26T19:55:23.327Z,100134.95
2019-05-26T19:58:30.304Z,100134.75
2019-05-26T20:01:37.046Z,100141.84
2019-05-26T20:04:43.379Z,100145.64
2019-05-26T20:07:50.002Z,100150.33
2019-05-26T20:10:56.344Z,100149.27
2019-05-26T20:14:02.983Z,100149.06
2019-05-26T20:17:09.303Z,100166.50
2019-05-26T20:20:15.851Z,100179.25
2019-05-26T20:23:22.186Z,100191.30
2019-05-26T20:26:28.495Z,100197.11
2019-05-26T20:29:35.195Z,100203.91
2019-05-26T20:32:50.239Z,100209.22
2019-05-26T20:35:56.717Z,100216.45
2019-05-26T20:39:03.360Z,100210.43
2019-05-26T20:42:11.016Z,100209.98
2019-05-26T20:45:17.699Z,100214.36
2019-05-26T20:48:24.028Z,100219.85
2019-05-26T20:51:30.431Z,100224.89
2019-05-26T20:54:37.084Z,100226.90
2019-05-26T20:57:43.735Z,100225.50
2019-05-26T21:00:53.216Z,100221.22
2019-05-26T21:03:58.466Z,100244.81
2019-05-26T21:07:05.029Z,100241.78
2019-05-26T21:10:11.430Z,100234.20
2019-05-26T21:13:17.779Z,100238.73
2019-05-26T21:16:24.171Z,100234.30
2019-05-26T21:19:30.559Z,100233.45
2019-05-26T21:22:36.962Z,100230.91
2019-05-26T21:25:44.371Z,100203.25
2019-05-26T21:28:50.741Z,100224.79
2019-05-26T21:31:57.513Z,100224.67
2019-05-26T21:35:04.219Z,100225.06
2019-05-26T21:38:10.561Z,100223.75
2019-05-26T21:41:17.020Z,100221.78
2019-05-26T21:44:23.567Z,100219.77
2019-05-26T21:47:30.012Z,100216.72
2019-05-26T21:50:36.360Z,100221.36
2019-05-26T21:53:42.726Z,100225.20
2019-05-26T21:56:49.271Z,100231.16
2019-05-26T21:59:55.660Z,100244.07
2019-05-26T22:03:02.077Z,100257.23
2019-05-26T22:06:08.443Z,100251.20
2019-05-26T22:09:14.936Z,100243.05
2019-05-26T22:12:21.630Z,100246.91
2019-05-26T22:15:28.270Z,100247.84
2019-05-26T22:18:34.956Z,100255.27
2019-05-26T22:21:41.646Z,100261.50
2019-05-26T22:24:48.262Z,100273.67
2019-05-26T22:27:54.819Z,100271.47
2019-05-26T22:31:01.435Z,100263.47
2019-05-26T22:34:08.634Z,100274.67
2019-05-26T22:37:15.219Z,100275.80
2019-05-26T22:40:21.868Z,100276.66
2019-05-26T22:43:28.509Z,100286.08
2019-05-26T22:46:36.496Z,100277.62
2019-05-26T22:49:44.745Z,100272.38
2019-05-26T22:52:51.283Z,100277.71
2019-05-26T22:55:57.919Z,100285.47
2019-05-26T22:59:04.672Z,100277.41
2019-05-26T23:02:11.260Z,100270.84
2019-05-26T23:05:18.893Z,100274.34
2019-05-26T23:08:25.853Z,100267.62
2019-05-26T23:11:33.353Z,100272.11
2019-05-26T23:14:40.098Z,100273.18
2019-05-26T23:17:46.636Z,100288.61
2019-05-26T23:20:53.284Z,100280.87
2019-05-26T23:23:59.957Z,100280.16
2019-05-26T23:27:06.520Z,100284.85
2019-05-26T23:30:12.968Z,100280.69
2019-05-26T23:33:19.374Z,100281.20
2019-05-26T23:36:26.216Z,100282.13
2019-05-26T23:39:32.750Z,100292.06
2019-05-26T23:42:39.101Z,100289.35
2019-05-26T23:45:45.546Z,100297.59
2019-05-26T23:48:52.311Z,100298.16
2019-05-26T23:51:58.744Z,100304.81
2019-05-26T23:55:05.438Z,100299.19
2019-05-26T23:58:11.732Z,100303.88
